Time;durP1;ratioP1;P1;durP2;ratioP2;P2;SDS_P1;SDS_P2;PMS_P1;PMS_P2;Temp;Humidity;BMP_temperature;BMP_pressure;BME280_temperature;BME280_humidity;BME280_pressure;Samples;Min_cycle;Max_cycle;Signal;HPM_P1;HPM_P2
2022/06/20 03:41:27;;;;;;;4.37;3.50;;;;;;;17.92;80.88;99991.88;5814697;28;20184;-85
2022/06/20 03:44:36;;;;;;;3.55;3.20;;;;;;;18.04;79.96;100000.88;5333438;33;34273;-86
2022/06/20 03:48:11;;;;;;;3.60;3.30;;;;;;;18.09;78.31;100000.19;5325481;33;34089;-85
2022/06/20 03:51:22;;;;;;;5.28;3.00;;;;;;;18.10;77.06;99999.94;5325955;33;34748;-85
2022/06/20 03:54:32;;;;;;;4.10;3.10;;;;;;;18.14;75.84;99997.59;5325045;33;33799;-85
2022/06/20 03:58:09;;;;;;;4.25;3.42;;;;;;;18.19;75.31;99989.50;5325051;33;34074;-85
2022/06/20 04:01:16;;;;;;;4.32;3.22;;;;;;;18.25;74.30;99991.31;5325423;33;34103;-89
2022/06/20 04:04:47;;;;;;;3.62;3.10;;;;;;;18.34;74.39;99989.88;5324208;33;33607;-85
2022/06/20 04:08:02;;;;;;;3.72;3.40;;;;;;;18.42;73.94;99988.66;5324920;33;35463;-83
2022/06/20 04:11:06;;;;;;;4.10;3.20;;;;;;;18.47;73.87;99987.97;5310744;33;32979;-84
2022/06/20 04:14:17;;;;;;;3.33;3.00;;;;;;;18.61;74.11;99994.00;5325054;33;33976;-83
2022/06/20 04:21:17;;;;;;;5.80;3.17;;;;;;;18.88;71.86;99999.75;5297510;33;33673;-83
2022/06/20 04:24:31;;;;;;;5.57;2.87;;;;;;;19.09;71.21;99999.09;5322764;33;34062;-83
2022/06/20 04:27:43;;;;;;;4.40;3.22;;;;;;;19.19;71.00;99988.38;5324570;33;34771;-83
2022/06/20 04:30:53;;;;;;;4.20;3.20;;;;;;;19.29;69.91;99986.91;5324849;33;34051;-83
2022/06/20 04:34:19;;;;;;;4.68;3.30;;;;;;;19.42;69.41;99992.03;5324803;33;35170;-83
2022/06/20 04:37:38;;;;;;;3.60;3.10;;;;;;;19.56;68.75;99998.84;5319883;33;33880;-83
2022/06/20 04:40:49;;;;;;;3.60;3.30;;;;;;;19.70;67.02;100002.97;5326333;33;33423;-83
2022/06/20 04:43:59;;;;;;;4.50;3.42;;;;;;;19.83;66.43;100000.97;5333155;33;34997;-83
2022/06/20 04:47:19;;;;;;;3.62;3.33;;;;;;;19.95;66.24;99996.28;5332555;33;33986;-83
2022/06/20 04:50:26;;;;;;;3.28;2.97;;;;;;;20.15;65.76;100001.22;5342559;33;34935;-83
2022/06/20 04:53:33;;;;;;;5.50;2.97;;;;;;;20.26;64.19;99992.09;5326578;33;33639;-83
2022/06/20 04:56:36;;;;;;;4.30;3.15;;;;;;;20.35;64.73;99987.00;5317991;33;32332;-83
2022/06/20 04:59:40;;;;;;;4.25;3.22;;;;;;;20.47;63.73;99982.25;5325865;33;33793;-83
2022/06/20 05:02:43;;;;;;;4.32;3.83;;;;;;;20.54;64.00;99993.87;5340076;33;34670;-83
2022/06/20 05:05:51;;;;;;;6.05;3.75;;;;;;;20.69;63.11;100001.47;5344583;33;33774;-82
2022/06/20 05:09:15;;;;;;;5.43;3.35;;;;;;;20.86;62.93;100006.87;5342746;33;33676;-82
2022/06/20 05:12:26;;;;;;;5.00;3.30;;;;;;;21.04;61.62;100001.06;5342826;33;33968;-82
2022/06/20 05:15:29;;;;;;;4.30;3.20;;;;;;;21.06;60.46;100004.38;5342833;33;33625;-82
2022/06/20 05:18:36;;;;;;;3.45;3.15;;;;;;;21.23;60.26;100001.53;5336091;33;34698;-82
2022/06/20 05:21:42;;;;;;;4.47;3.12;;;;;;;21.33;59.23;99998.09;5339270;33;33822;-82
2022/06/20 05:24:47;;;;;;;6.95;3.08;;;;;;;21.30;59.68;100001.38;5324958;33;34450;-85
2022/06/20 05:27:59;;;;;;;5.00;2.95;;;;;;;21.34;59.47;99999.75;5324381;33;34918;-86
2022/06/20 05:31:03;;;;;;;4.18;3.10;;;;;;;21.44;58.88;99996.31;5327625;33;33628;-82
2022/06/20 05:34:29;;;;;;;3.45;3.00;;;;;;;21.42;58.28;99995.75;5325562;33;34560;-82
2022/06/20 05:37:42;;;;;;;3.37;3.05;;;;;;;21.60;58.63;100005.50;5324129;33;33865;-82
2022/06/20 05:40:49;;;;;;;5.93;3.42;;;;;;;21.83;58.47;100007.91;5324239;33;34418;-82
2022/06/20 05:43:56;;;;;;;3.62;3.00;;;;;;;22.06;57.55;99998.50;5324487;33;35390;-82
2022/06/20 05:47:04;;;;;;;5.15;3.40;;;;;;;22.13;56.67;100007.31;5327381;33;34169;-82
2022/06/20 05:50:13;;;;;;;5.93;3.40;;;;;;;22.17;56.37;100008.50;5332427;33;34440;-82
2022/06/20 05:53:24;;;;;;;3.92;2.92;;;;;;;22.20;55.62;100004.41;5325086;33;34898;-82
2022/06/20 05:56:39;;;;;;;3.42;2.95;;;;;;;22.24;55.52;100004.69;5326417;33;34040;-82
2022/06/20 05:59:47;;;;;;;3.55;2.80;;;;;;;22.44;55.51;100007.56;5330421;33;34112;-82
2022/06/20 06:03:18;;;;;;;3.75;3.03;;;;;;;22.63;54.42;99999.69;5328940;33;34769;-83
2022/06/20 06:06:28;;;;;;;3.97;2.87;;;;;;;22.80;53.07;100010.47;5292130;33;32772;-83
2022/06/20 06:09:49;;;;;;;8.05;2.90;;;;;;;22.76;53.59;100018.44;5324068;33;34002;-83
2022/06/20 06:13:04;;;;;;;3.80;2.97;;;;;;;22.89;53.66;100011.59;5324253;33;34209;-83
2022/06/20 06:19:53;;;;;;;4.15;2.90;;;;;;;23.13;54.05;99998.25;5320430;33;33964;-83
2022/06/20 06:23:04;;;;;;;3.43;3.00;;;;;;;23.27;53.07;100004.91;5300089;33;33733;-83
2022/06/20 06:26:12;;;;;;;4.65;2.65;;;;;;;23.31;52.19;99999.69;5321913;33;33963;-83
2022/06/20 06:29:24;;;;;;;3.05;2.78;;;;;;;23.46;52.22;99996.97;5322967;33;34639;-83
2022/06/20 06:32:42;;;;;;;3.22;2.92;;;;;;;23.56;51.49;99990.66;5331627;33;34565;-83
2022/06/20 06:35:57;;;;;;;4.67;3.07;;;;;;;23.77;50.88;99991.53;5341621;33;34458;-83
2022/06/20 06:39:21;;;;;;;3.05;2.83;;;;;;;23.94;50.50;99994.81;5341831;33;35186;-83
2022/06/20 06:42:24;;;;;;;3.58;2.92;;;;;;;24.17;49.78;99993.44;5325376;33;34207;-83
2022/06/20 06:45:31;;;;;;;6.90;3.03;;;;;;;24.34;50.29;99984.88;5340680;33;34021;-86
2022/06/20 06:48:52;;;;;;;3.75;3.20;;;;;;;24.48;49.02;99982.38;5322261;33;33904;-87
2022/06/20 06:52:10;;;;;;;4.50;2.70;;;;;;;24.75;48.54;99981.19;5330011;33;34774;-83
2022/06/20 06:55:30;;;;;;;3.35;2.97;;;;;;;24.75;47.96;99986.72;5341323;33;34174;-83
2022/06/20 06:58:45;;;;;;;5.93;3.10;;;;;;;24.92;47.54;99989.91;5339151;33;33592;-83
2022/06/20 07:01:53;;;;;;;4.00;3.25;;;;;;;25.10;47.17;99978.28;5327359;33;32859;-83
2022/06/20 07:05:07;;;;;;;3.70;2.87;;;;;;;25.22;46.38;99982.66;5327427;33;33871;-83
2022/06/20 07:08:12;;;;;;;5.53;2.83;;;;;;;25.38;46.48;99973.16;5329938;33;34257;-83
2022/06/20 07:11:22;;;;;;;4.20;3.05;;;;;;;25.58;46.00;99957.59;5311925;33;32726;-83
2022/06/20 07:14:25;;;;;;;4.82;3.15;;;;;;;25.83;45.48;99953.81;5325026;33;34562;-83
2022/06/20 07:17:42;;;;;;;3.10;2.80;;;;;;;26.09;44.94;99943.34;5311925;33;32189;-83
2022/06/20 07:20:46;;;;;;;4.78;2.90;;;;;;;26.26;44.70;99932.69;5343178;33;34022;-83
2022/06/20 07:23:55;;;;;;;3.55;2.75;;;;;;;26.42;44.38;99936.09;5325215;33;34269;-83
2022/06/20 07:27:08;;;;;;;3.53;2.62;;;;;;;26.51;43.81;99931.59;5323489;33;35360;-83
2022/06/20 07:30:24;;;;;;;3.85;2.67;;;;;;;26.73;42.88;99922.75;5324961;33;33734;-84
2022/06/20 07:33:53;;;;;;;3.75;2.67;;;;;;;26.84;42.12;99923.44;5317794;33;32741;-88
2022/06/20 07:37:00;;;;;;;2.95;2.65;;;;;;;27.04;41.66;99917.63;5308494;33;32990;-81
2022/06/20 07:40:04;;;;;;;4.60;2.70;;;;;;;27.25;40.80;99901.59;5324648;33;35025;-83
2022/06/20 07:43:44;;;;;;;3.87;2.30;;;;;;;27.49;40.32;99906.19;5323370;33;35705;-84
2022/06/20 07:46:55;;;;;;;2.53;2.33;;;;;;;27.76;39.60;99913.75;5333560;33;33937;-83
2022/06/20 07:50:06;;;;;;;4.30;2.85;;;;;;;27.83;39.20;99905.09;5341243;33;35138;-83
2022/06/20 07:53:16;;;;;;;3.35;2.30;;;;;;;28.07;39.57;99899.38;5321838;33;32858;-81
2022/06/20 07:56:27;;;;;;;3.30;2.70;;;;;;;28.08;38.51;99903.78;5334234;33;34211;-81
2022/06/20 07:59:48;;;;;;;4.70;2.78;;;;;;;28.25;38.13;99904.00;5313812;33;34520;-81
2022/06/20 08:03:02;;;;;;;8.65;3.17;;;;;;;28.24;37.88;99900.41;5318242;33;32747;-81
2022/06/20 08:06:39;;;;;;;4.10;2.75;;;;;;;28.14;38.12;99903.38;5319714;33;32362;-82
2022/06/20 08:09:56;;;;;;;3.90;2.97;;;;;;;28.34;38.38;99893.84;5311905;33;33430;-82
2022/06/20 08:13:25;;;;;;;4.80;3.22;;;;;;;28.48;39.01;99888.31;5326057;33;34514;-82
2022/06/20 08:16:29;;;;;;;4.32;2.83;;;;;;;28.59;38.36;99886.16;5307361;33;32588;-82
2022/06/20 08:19:32;;;;;;;3.65;2.65;;;;;;;28.82;38.58;99890.62;5327288;33;35401;-82
2022/06/20 08:22:47;;;;;;;2.83;2.60;;;;;;;28.93;38.22;99903.13;5328038;33;34137;-82
2022/06/20 08:25:55;;;;;;;3.70;2.92;;;;;;;28.96;37.92;99890.59;5326534;33;34883;-82
2022/06/20 08:29:12;;;;;;;5.05;2.80;;;;;;;28.95;37.91;99894.50;5313531;33;33374;-82
2022/06/20 08:32:48;;;;;;;3.87;2.85;;;;;;;28.90;38.85;99894.59;5326358;33;35034;-82
2022/06/20 08:36:00;;;;;;;4.00;3.03;;;;;;;28.78;38.49;99880.47;5330154;33;35146;-85
2022/06/20 08:39:35;;;;;;;3.80;3.50;;;;;;;28.89;38.88;99874.38;5331865;33;35186;-85
2022/06/20 08:42:59;;;;;;;4.28;2.97;;;;;;;29.07;37.76;99878.16;5313894;33;33877;-85
2022/06/20 08:46:48;;;;;;;4.25;3.37;;;;;;;29.05;38.52;99872.13;5331101;33;33858;-84
2022/06/20 08:49:54;;;;;;;3.75;3.15;;;;;;;29.25;38.10;99881.91;5293233;33;32591;-84
2022/06/20 08:53:06;;;;;;;4.20;3.00;;;;;;;29.37;38.32;99865.50;5335077;33;34109;-85
2022/06/20 08:56:26;;;;;;;5.50;2.97;;;;;;;29.65;37.75;99870.13;5332592;33;35570;-85
2022/06/20 08:59:38;;;;;;;4.40;3.05;;;;;;;29.69;38.07;99865.56;5315881;33;32776;-85
2022/06/20 09:03:00;;;;;;;6.00;3.03;;;;;;;29.79;37.50;99865.28;5331707;33;34128;-86
2022/06/20 09:06:16;;;;;;;7.75;3.60;;;;;;;29.92;37.52;99861.59;5319735;33;33781;-87
2022/06/20 09:09:46;;;;;;;4.20;3.17;;;;;;;30.01;37.13;99854.13;5295281;33;34150;-86
2022/06/20 09:13:13;;;;;;;5.03;3.45;;;;;;;30.25;37.03;99853.75;5294629;33;33291;-86
2022/06/20 09:16:25;;;;;;;4.95;3.05;;;;;;;30.32;36.52;99847.72;5310428;33;33938;-86
2022/06/20 09:19:44;;;;;;;6.85;3.87;;;;;;;30.11;36.80;99847.47;5297995;33;32155;-86
2022/06/20 09:22:49;;;;;;;5.50;3.28;;;;;;;30.05;37.26;99832.09;5297928;33;32908;-86
2022/06/20 09:26:13;;;;;;;3.65;3.17;;;;;;;30.14;36.75;99841.28;5317175;33;35019;-87
2022/06/20 09:29:53;;;;;;;5.25;3.70;;;;;;;29.95;36.95;99837.94;5329744;33;34312;-87
2022/06/20 09:33:33;;;;;;;5.85;3.25;;;;;;;29.85;37.28;99833.50;5335261;33;33181;-88
2022/06/20 09:36:55;;;;;;;5.95;3.33;;;;;;;30.08;37.68;99814.00;5343389;33;32831;-87
2022/06/20 09:40:37;;;;;;;3.50;3.20;;;;;;;30.45;36.00;99799.56;5383306;27;33707;-87
2022/06/20 09:43:59;;;;;;;6.78;3.30;;;;;;;30.58;36.51;99786.66;5319607;33;33856;-87
2022/06/20 09:47:38;;;;;;;4.65;3.37;;;;;;;30.93;35.54;99795.81;5316397;33;34927;-86
2022/06/20 09:51:05;;;;;;;4.43;3.20;;;;;;;31.14;35.07;99800.72;5319554;33;32524;-87
2022/06/20 09:54:44;;;;;;;3.47;3.17;;;;;;;31.12;34.67;99798.28;5327941;33;35514;-86
2022/06/20 09:58:01;;;;;;;4.93;3.10;;;;;;;31.21;34.90;99786.28;5304961;33;32784;-86
2022/06/20 10:01:25;;;;;;;4.62;3.83;;;;;;;31.32;34.75;99779.22;5329804;33;34517;-86
2022/06/20 10:04:42;;;;;;;5.70;3.08;;;;;;;31.42;34.35;99776.16;5326809;33;33944;-86
2022/06/20 10:08:19;;;;;;;3.90;3.28;;;;;;;31.34;33.69;99779.72;5320938;33;34074;-86
2022/06/20 10:11:34;;;;;;;3.25;2.55;;;;;;;31.46;33.74;99773.50;5325012;33;34120;-86
2022/06/20 10:14:37;;;;;;;6.00;3.60;;;;;;;31.56;34.14;99767.56;5329204;33;34265;-86
2022/06/20 10:17:54;;;;;;;3.47;3.10;;;;;;;31.45;34.54;99769.09;5349598;33;34418;-87
2022/06/20 10:21:33;;;;;;;3.97;3.58;;;;;;;32.01;34.62;99761.50;5340677;33;35483;-89
2022/06/20 10:25:00;;;;;;;3.80;3.33;;;;;;;32.41;33.06;99763.84;5326322;33;33225;-88
2022/06/20 10:28:43;;;;;;;5.00;3.30;;;;;;;32.69;32.43;99755.78;5318393;33;33133;-87
2022/06/20 10:32:01;;;;;;;4.32;3.78;;;;;;;32.74;32.43;99753.59;5331262;33;32976;-87
2022/06/20 10:35:15;;;;;;;3.83;3.10;;;;;;;32.80;32.01;99745.03;5353745;28;35110;-84
2022/06/20 10:38:41;;;;;;;5.80;3.65;;;;;;;33.54;30.77;99744.09;5327704;33;35338;-87
2022/06/20 10:41:50;;;;;;;5.03;3.42;;;;;;;33.50;30.56;99740.34;5309623;33;34618;-91
2022/06/20 10:45:25;;;;;;;6.10;3.33;;;;;;;33.67;30.08;99741.28;5325465;33;34307;-88
2022/06/20 10:48:37;;;;;;;4.22;3.20;;;;;;;33.82;29.52;99743.41;5330078;33;33719;-86
2022/06/20 10:52:28;;;;;;;4.30;3.90;;;;;;;33.73;29.37;99737.13;5325209;33;34548;-84
2022/06/20 10:55:43;;;;;;;5.20;3.60;;;;;;;33.73;30.53;99737.13;5310043;33;34320;-85
2022/06/20 10:59:16;;;;;;;5.20;3.30;;;;;;;33.63;29.58;99735.59;5296468;33;34277;-85
2022/06/20 11:02:44;;;;;;;3.92;3.53;;;;;;;34.28;29.94;99728.13;5299429;33;34041;-84
2022/06/20 11:05:57;;;;;;;3.42;3.12;;;;;;;34.82;28.11;99724.13;5312819;33;34094;-84
2022/06/20 11:09:12;;;;;;;4.70;3.47;;;;;;;35.41;27.84;99722.50;5312782;33;34715;-84
2022/06/20 11:12:40;;;;;;;4.18;3.30;;;;;;;35.24;27.21;99722.84;5318290;33;34225;-84
2022/06/20 11:16:08;;;;;;;3.17;2.97;;;;;;;35.85;26.72;99716.78;5294030;33;34296;-84
2022/06/20 11:19:27;;;;;;;3.22;2.92;;;;;;;36.52;25.58;99706.31;5297122;33;34676;-85
2022/06/20 11:22:46;;;;;;;6.37;3.45;;;;;;;36.15;26.29;99705.91;5313553;33;34137;-84
2022/06/20 11:26:01;;;;;;;3.50;3.20;;;;;;;37.05;25.10;99691.72;5312147;33;34146;-85
2022/06/20 11:29:13;;;;;;;4.43;3.33;;;;;;;37.94;23.81;99685.97;5306709;33;34343;-85
2022/06/20 11:32:46;;;;;;;2.90;2.70;;;;;;;38.41;22.81;99691.09;5275777;33;32786;-85
2022/06/20 11:35:58;;;;;;;3.05;2.75;;;;;;;38.92;22.19;99703.72;5293114;33;34016;-86
2022/06/20 11:39:24;;;;;;;6.10;3.17;;;;;;;39.39;21.45;99705.81;5308148;33;34829;-87
2022/06/20 11:42:30;;;;;;;4.65;3.00;;;;;;;39.61;21.82;99706.00;5280070;33;32527;-85
2022/06/20 11:45:51;;;;;;;3.33;3.03;;;;;;;40.86;20.19;99709.50;5304359;33;33670;-85
2022/06/20 11:49:31;;;;;;;2.62;2.42;;;;;;;41.54;19.50;99695.50;5283232;33;34075;-85
2022/06/20 11:52:53;;;;;;;3.67;2.45;;;;;;;42.00;18.95;99707.97;5297592;33;34019;-85
2022/06/20 11:56:12;;;;;;;2.75;2.55;;;;;;;42.08;19.81;99698.25;5302810;33;33890;-85
2022/06/20 11:59:53;;;;;;;3.62;2.80;;;;;;;42.71;18.46;99689.88;5300401;33;35337;-86
2022/06/20 12:03:18;;;;;;;2.60;2.40;;;;;;;42.73;18.33;99695.97;5303932;33;34184;-85
2022/06/20 12:06:25;;;;;;;4.53;2.50;;;;;;;43.08;17.71;99702.63;5296505;33;34205;-85
2022/06/20 12:09:41;;;;;;;;;;;;;;;43.48;17.84;99684.12;5339471;33;34937;-86
2022/06/20 12:13:04;;;;;;;11.02;3.15;;;;;;;43.88;16.89;99678.88;5313371;33;34404;-86
2022/06/20 12:16:17;;;;;;;3.45;2.28;;;;;;;43.71;17.29;99692.03;5298618;33;32769;-85
2022/06/20 12:23:21;;;;;;;2.58;2.17;;;;;;;44.44;16.60;99682.31;5310499;33;33755;-85
2022/06/20 12:26:31;;;;;;;2.58;2.37;;;;;;;44.10;17.65;99673.78;5299053;33;34182;-89
2022/06/20 12:29:36;;;;;;;3.25;2.60;;;;;;;43.98;16.77;99660.16;5284001;33;34051;-85
2022/06/20 12:32:43;;;;;;;3.10;2.80;;;;;;;44.91;16.82;99661.81;5302935;33;34654;-85
2022/06/20 12:35:55;;;;;;;2.70;2.50;;;;;;;44.76;16.52;99655.53;5281192;33;32302;-84
2022/06/20 12:39:21;;;;;;;2.45;2.25;;;;;;;44.89;15.90;99644.38;5291141;33;34128;-84
2022/06/20 12:42:36;;;;;;;2.12;2.03;;;;;;;45.86;15.10;99654.88;5292870;33;32654;-86
2022/06/20 12:45:56;;;;;;;2.62;2.40;;;;;;;45.77;15.71;99658.28;5307677;33;33675;-84
2022/06/20 12:49:09;;;;;;;3.22;2.37;;;;;;;45.72;14.78;99655.16;5294751;33;32418;-84
2022/06/20 12:52:30;;;;;;;4.32;2.35;;;;;;;46.32;14.47;99648.28;5295862;33;32927;-84
2022/06/20 12:55:57;;;;;;;2.37;2.17;;;;;;;45.41;15.12;99649.63;5300427;33;33433;-85
2022/06/20 12:59:19;;;;;;;2.55;2.35;;;;;;;46.23;14.99;99642.34;5311754;33;34454;-85
2022/06/20 13:02:48;;;;;;;2.03;1.92;;;;;;;45.94;15.13;99645.00;5292091;33;33005;-86
2022/06/20 13:06:02;;;;;;;3.12;2.08;;;;;;;46.76;14.49;99633.88;5276786;33;34838;-85
2022/06/20 13:09:47;;;;;;;2.10;2.00;;;;;;;46.62;13.45;99632.12;5286939;33;81117;-86
2022/06/20 13:13:08;;;;;;;1.60;1.50;;;;;;;47.01;12.98;99628.37;5281011;33;32597;-86
2022/06/20 13:16:22;;;;;;;2.15;1.90;;;;;;;47.57;11.84;99626.56;5297341;33;34563;-85
2022/06/20 13:19:55;;;;;;;1.87;1.70;;;;;;;47.61;11.04;99628.06;5299163;33;33949;-85
2022/06/20 13:23:36;;;;;;;1.75;1.65;;;;;;;47.39;11.65;99624.16;5287669;33;32294;-84
2022/06/20 13:26:45;;;;;;;2.65;1.77;;;;;;;47.60;12.27;99619.97;5292469;33;34795;-84
2022/06/20 13:29:57;;;;;;;2.12;1.98;;;;;;;48.09;11.92;99626.31;5299703;33;34554;-85
2022/06/20 13:33:20;;;;;;;2.30;2.20;;;;;;;46.71;12.91;99625.88;5306759;33;34249;-86
2022/06/20 13:36:26;;;;;;;2.17;2.00;;;;;;;47.03;12.93;99619.41;5298401;33;33602;-86
2022/06/20 13:39:48;;;;;;;1.85;1.75;;;;;;;47.25;13.07;99609.06;5303996;33;33904;-86
2022/06/20 13:43:05;;;;;;;2.10;1.90;;;;;;;47.33;12.78;99606.00;5307945;33;35062;-86
2022/06/20 13:46:22;;;;;;;1.90;1.80;;;;;;;46.83;13.65;99604.41;5307362;33;34811;-86
2022/06/20 13:49:43;;;;;;;1.92;1.83;;;;;;;47.31;12.77;99603.59;5308213;33;33912;-85
2022/06/20 13:52:49;;;;;;;4.40;1.80;;;;;;;47.22;12.67;99612.00;5293660;33;32376;-85
2022/06/20 13:56:25;;;;;;;2.03;1.55;;;;;;;46.83;12.50;99590.97;5307024;33;34758;-85
2022/06/20 13:59:54;;;;;;;2.97;1.70;;;;;;;45.38;13.96;99588.75;5295618;33;32402;-86
2022/06/20 14:03:05;;;;;;;1.85;1.60;;;;;;;45.05;13.86;99590.53;5289504;33;32440;-85
2022/06/20 14:06:16;;;;;;;2.00;1.90;;;;;;;44.26;13.93;99588.87;5299671;33;33148;-85
2022/06/20 14:09:59;;;;;;;2.10;1.62;;;;;;;41.98;15.83;99568.97;5314235;33;34373;-86
2022/06/20 14:13:19;;;;;;;1.90;1.80;;;;;;;40.24;17.68;99572.25;5235237;34;34522;-86
2022/06/20 14:16:28;;;;;;;1.80;1.60;;;;;;;39.60;18.49;99574.75;5228041;33;32374;-86
2022/06/20 14:19:44;;;;;;;2.00;1.90;;;;;;;38.31;19.65;99557.53;5294538;33;32454;-86
2022/06/20 14:22:49;;;;;;;3.80;1.97;;;;;;;37.64;20.39;99574.34;5307792;33;33799;-86
2022/06/20 14:25:56;;;;;;;2.00;1.90;;;;;;;37.33;21.34;99578.31;5294704;33;33206;-89
2022/06/20 14:29:02;;;;;;;4.10;2.00;;;;;;;36.90;21.21;99560.75;5307542;33;35341;-90
2022/06/20 14:32:18;;;;;;;2.45;1.90;;;;;;;36.43;22.09;99570.31;5306891;33;35114;-86
2022/06/20 14:35:25;;;;;;;1.75;1.65;;;;;;;35.99;22.52;99574.22;5293969;33;32719;-86
2022/06/20 14:38:39;;;;;;;2.47;2.28;;;;;;;35.61;22.69;99552.63;5307422;33;34736;-86
2022/06/20 14:41:44;;;;;;;3.72;2.42;;;;;;;35.34;23.46;99554.38;5294172;33;33072;-86
2022/06/20 14:44:53;;;;;;;3.15;2.10;;;;;;;35.39;23.11;99545.69;5307372;33;34881;-86
2022/06/20 14:48:05;;;;;;;3.78;2.28;;;;;;;35.18;23.08;99549.63;5306897;33;34762;-86
2022/06/20 14:51:22;;;;;;;2.60;2.40;;;;;;;35.24;23.29;99550.16;5306650;33;34023;-85
2022/06/20 14:54:44;;;;;;;3.33;1.92;;;;;;;35.08;23.24;99541.78;5293680;33;34610;-86
2022/06/20 14:57:57;;;;;;;2.30;2.10;;;;;;;35.07;22.91;99539.34;5290515;33;34487;-85
2022/06/20 15:01:08;;;;;;;2.20;2.00;;;;;;;34.88;23.07;99538.06;5279713;33;32409;-85
2022/06/20 15:04:28;;;;;;;2.72;2.25;;;;;;;34.39;23.87;99538.38;5297473;33;33073;-85
2022/06/20 15:07:40;;;;;;;;;;;;;;;34.46;24.19;99537.78;5289143;33;32655;-85
2022/06/20 15:11:03;;;;;;;6.00;2.00;;;;;;;34.27;24.34;99528.09;5297624;33;35698;-88
2022/06/20 15:14:25;;;;;;;2.25;2.05;;;;;;;34.27;24.83;99518.91;5286681;33;33360;-86
2022/06/20 15:17:33;;;;;;;4.95;2.55;;;;;;;34.37;24.94;99537.94;5277131;33;33524;-86
2022/06/20 15:20:44;;;;;;;2.30;2.10;;;;;;;34.22;25.19;99541.50;5298211;33;35578;-86
2022/06/20 15:24:11;;;;;;;5.18;2.58;;;;;;;34.27;25.85;99533.69;5299583;33;34520;-86
2022/06/20 15:27:29;;;;;;;14.30;3.03;;;;;;;34.28;25.74;99529.72;5303764;33;33767;-86
2022/06/20 15:30:36;;;;;;;2.12;2.03;;;;;;;34.17;26.20;99533.41;5308940;33;34722;-86
2022/06/20 15:33:48;;;;;;;2.25;2.05;;;;;;;34.10;25.90;99539.59;5294378;33;33616;-86
2022/06/20 15:36:55;;;;;;;2.33;2.22;;;;;;;34.12;26.34;99528.87;5308183;33;33964;-86
2022/06/20 15:40:05;;;;;;;2.40;2.30;;;;;;;34.19;26.60;99529.06;5308651;33;33989;-86
2022/06/20 15:43:39;;;;;;;3.03;2.03;;;;;;;34.04;27.02;99533.44;5309022;33;34004;-85
2022/06/20 15:46:50;;;;;;;2.92;2.03;;;;;;;33.70;26.91;99534.00;5308754;33;34328;-89
2022/06/20 15:50:04;;;;;;;2.40;2.20;;;;;;;33.66;27.12;99519.13;5295219;33;33183;-86
2022/06/20 15:53:20;;;;;;;8.82;2.33;;;;;;;33.51;27.96;99531.81;5308085;33;33849;-86
2022/06/20 15:56:27;;;;;;;3.90;2.37;;;;;;;33.47;27.24;99528.13;5296074;33;32853;-86
